createdAt,value
2022-11-07T00:00:42.935Z,9.27
2022-11-07T00:01:41.307Z,9.27
2022-11-07T00:02:41.134Z,9.27
2022-11-07T00:03:41.080Z,9.21
2022-11-07T00:04:41.034Z,9.21
2022-11-07T00:05:40.989Z,9.21
2022-11-07T00:06:41.119Z,9.15
2022-11-07T00:07:41.056Z,9.15
2022-11-07T00:08:41.151Z,9.15
2022-11-07T00:09:41.080Z,9.15
2022-11-07T00:10:41.190Z,9.1
2022-11-07T00:11:41.152Z,9.04
2022-11-07T00:12:41.150Z,9.1
2022-11-07T00:13:41.185Z,9.1
2022-11-07T00:14:41.233Z,9.04
2022-11-07T00:15:40.992Z,9.04
2022-11-07T00:16:40.997Z,9.04
2022-11-07T00:17:40.959Z,8.98
2022-11-07T00:18:41.087Z,8.98
2022-11-07T00:19:41.074Z,8.98
2022-11-07T00:20:40.986Z,8.92
2022-11-07T00:21:40.961Z,8.92
2022-11-07T00:22:40.997Z,8.98
2022-11-07T00:23:41.023Z,8.98
2022-11-07T00:24:40.965Z,8.98
2022-11-07T00:25:40.972Z,8.98
2022-11-07T00:26:40.962Z,8.98
2022-11-07T00:27:41.190Z,8.98
2022-11-07T00:28:41.047Z,8.98
2022-11-07T00:29:41.033Z,8.92
2022-11-07T00:30:41.055Z,8.92
2022-11-07T00:31:40.960Z,8.92
2022-11-07T00:32:40.994Z,8.98
2022-11-07T00:33:40.969Z,8.98
2022-11-07T00:34:41.092Z,8.92
2022-11-07T00:35:41.086Z,8.92
2022-11-07T00:36:40.967Z,8.92
2022-11-07T00:37:40.981Z,8.92
2022-11-07T00:38:41.002Z,8.92
2022-11-07T00:39:40.995Z,8.98
2022-11-07T00:40:41.002Z,8.98
2022-11-07T00:41:41.022Z,8.98
2022-11-07T00:42:41.131Z,9.04
2022-11-07T00:43:41.003Z,8.98
2022-11-07T00:44:40.976Z,8.98
2022-11-07T00:45:41.046Z,8.87
2022-11-07T00:46:41.049Z,8.81
2022-11-07T00:47:41.077Z,8.81
2022-11-07T00:48:41.059Z,8.7
2022-11-07T00:49:40.964Z,8.7
2022-11-07T00:50:41.013Z,8.75
2022-11-07T00:51:40.969Z,8.87
2022-11-07T00:52:40.964Z,8.92
2022-11-07T00:53:40.978Z,8.87
2022-11-07T00:54:41.113Z,8.87
2022-11-07T00:55:40.964Z,8.92
2022-11-07T00:56:40.959Z,8.92
2022-11-07T00:57:41.020Z,8.92
2022-11-07T00:58:41.012Z,8.92
2022-11-07T00:59:41.022Z,8.92
2022-11-07T01:00:40.973Z,8.98
2022-11-07T01:01:41.174Z,8.98
2022-11-07T01:02:41.295Z,8.98
2022-11-07T01:03:40.973Z,8.98
2022-11-07T01:04:40.961Z,8.98
2022-11-07T01:05:41.073Z,8.98
2022-11-07T01:06:41.074Z,9.04
2022-11-07T01:07:40.974Z,9.04
2022-11-07T01:08:41.112Z,8.98
2022-11-07T01:09:40.985Z,8.92
2022-11-07T01:10:40.965Z,8.92
2022-11-07T01:11:40.991Z,8.98
2022-11-07T01:12:41.013Z,8.92
2022-11-07T01:13:41.020Z,8.98
2022-11-07T01:14:41.026Z,8.92
2022-11-07T01:15:40.964Z,8.92
2022-11-07T01:16:40.970Z,8.98
2022-11-07T01:17:40.954Z,9.04
2022-11-07T01:18:41.082Z,9.1
2022-11-07T01:19:41.054Z,8.98
2022-11-07T01:20:41.059Z,8.98
2022-11-07T01:21:41.023Z,9.1
2022-11-07T01:22:41.076Z,9.04
2022-11-07T01:23:40.994Z,8.98
2022-11-07T01:24:40.978Z,8.92
2022-11-07T01:25:40.994Z,8.92
2022-11-07T01:26:40.957Z,8.87
2022-11-07T01:27:41.007Z,8.81
2022-11-07T01:28:41.009Z,8.81
2022-11-07T01:29:41.138Z,8.81
2022-11-07T01:30:41.022Z,8.87
2022-11-07T01:31:40.965Z,8.87
2022-11-07T01:32:40.971Z,8.92
2022-11-07T01:33:40.991Z,8.87
2022-11-07T01:34:40.959Z,8.81
2022-11-07T01:35:41.054Z,8.81
2022-11-07T01:36:41.057Z,8.75
2022-11-07T01:37:41.020Z,8.75
2022-11-07T01:38:41.102Z,8.7
2022-11-07T01:39:40.974Z,8.7
2022-11-07T01:40:40.953Z,8.75
2022-11-07T01:41:40.990Z,8.75
2022-11-07T01:42:40.994Z,8.81
2022-11-07T01:43:40.975Z,8.81
2022-11-07T01:44:40.979Z,8.81
2022-11-07T01:45:41.130Z,8.81
2022-11-07T01:46:40.960Z,8.81
2022-11-07T01:47:40.966Z,8.75
2022-11-07T01:48:41.046Z,8.81
2022-11-07T01:49:41.072Z,8.81
2022-11-07T01:50:41.047Z,8.75
2022-11-07T01:51:41.054Z,8.75
2022-11-07T01:52:41.079Z,8.87
2022-11-07T01:53:41.085Z,8.81
2022-11-07T01:54:41.076Z,8.75
2022-11-07T01:55:41.083Z,8.75
2022-11-07T01:56:40.973Z,8.81
2022-11-07T01:57:40.990Z,8.81
2022-11-07T01:58:40.997Z,8.75
2022-11-07T01:59:41.001Z,8.7
2022-11-07T02:00:41.022Z,8.64
2022-11-07T02:01:41.177Z,8.7
2022-11-07T02:02:41.199Z,8.7
2022-11-07T02:03:41.060Z,8.7
2022-11-07T02:04:40.955Z,8.64
2022-11-07T02:05:41.038Z,8.59
2022-11-07T02:06:40.985Z,8.53
2022-11-07T02:07:41.106Z,8.53
2022-11-07T02:08:41.157Z,8.53
2022-11-07T02:09:41.067Z,8.48
2022-11-07T02:10:41.082Z,8.48
2022-11-07T02:11:41.149Z,8.48
2022-11-07T02:12:41.206Z,8.48
2022-11-07T02:13:41.243Z,8.48
2022-11-07T02:14:41.160Z,8.48
2022-11-07T02:15:41.186Z,8.59
2022-11-07T02:16:41.287Z,8.59
2022-11-07T02:17:41.349Z,8.53
2022-11-07T02:18:41.199Z,8.53
2022-11-07T02:19:41.398Z,8.53
2022-11-07T02:20:41.020Z,8.53
2022-11-07T02:21:40.962Z,8.53
2022-11-07T02:22:40.962Z,8.53
2022-11-07T02:23:41.083Z,8.53
2022-11-07T02:24:41.062Z,8.53
2022-11-07T02:25:40.977Z,8.53
2022-11-07T02:26:40.998Z,8.48
2022-11-07T02:27:40.959Z,8.48
2022-11-07T02:28:40.974Z,8.53
2022-11-07T02:29:40.958Z,8.53
2022-11-07T02:30:40.993Z,8.53
2022-11-07T02:31:41.012Z,8.48
2022-11-07T02:32:41.122Z,8.48
2022-11-07T02:33:40.963Z,8.48
2022-11-07T02:34:40.986Z,8.48
2022-11-07T02:35:40.969Z,8.42
2022-11-07T02:36:41.045Z,8.42
2022-11-07T02:37:41.053Z,8.42
2022-11-07T02:38:40.993Z,8.37
2022-11-07T02:39:41.031Z,8.42
2022-11-07T02:40:40.997Z,8.42
2022-11-07T02:41:41.061Z,8.37
2022-11-07T02:42:40.968Z,8.37
2022-11-07T02:43:41.084Z,8.42
2022-11-07T02:44:40.976Z,8.42
2022-11-07T02:45:40.992Z,8.42
2022-11-07T02:46:40.964Z,8.42
2022-11-07T02:47:41.007Z,8.37
2022-11-07T02:48:41.124Z,8.31
2022-11-07T02:49:40.963Z,8.31
2022-11-07T02:50:40.969Z,8.37
2022-11-07T02:51:41.103Z,8.31
2022-11-07T02:52:41.257Z,8.37
2022-11-07T02:53:41.184Z,8.37
2022-11-07T02:54:41.057Z,8.37
2022-11-07T02:55:41.014Z,8.37
2022-11-07T02:56:40.965Z,8.37
2022-11-07T02:57:41.174Z,8.37
2022-11-07T02:58:41.147Z,8.42
2022-11-07T02:59:41.146Z,8.37
2022-11-07T03:00:41.173Z,8.37
2022-11-07T03:01:41.505Z,8.37
2022-11-07T03:02:41.391Z,8.31
2022-11-07T03:03:41.284Z,8.31
2022-11-07T03:04:43.998Z,8.31
2022-11-07T03:05:40.977Z,8.26
2022-11-07T03:06:40.959Z,8.26
2022-11-07T03:07:40.968Z,8.26
2022-11-07T03:08:41.049Z,8.26
2022-11-07T03:09:40.956Z,8.31
2022-11-07T03:10:41.015Z,8.37
2022-11-07T03:11:40.998Z,8.31
2022-11-07T03:12:40.974Z,8.31
2022-11-07T03:13:41.025Z,8.31
2022-11-07T03:14:40.979Z,8.31
2022-11-07T03:15:40.963Z,8.26
2022-11-07T03:16:40.983Z,8.31
2022-11-07T03:17:40.964Z,8.26
2022-11-07T03:18:41.004Z,8.26
2022-11-07T03:19:41.015Z,8.26
2022-11-07T03:20:40.971Z,8.21
2022-11-07T03:21:40.961Z,8.21
2022-11-07T03:22:40.984Z,8.21
2022-11-07T03:23:40.976Z,8.21
2022-11-07T03:24:40.960Z,8.21
2022-11-07T03:25:40.975Z,8.21
2022-11-07T03:26:41.043Z,8.15
2022-11-07T03:27:41.054Z,8.15
2022-11-07T03:28:41.079Z,8.15
2022-11-07T03:29:41.076Z,8.1
2022-11-07T03:30:40.972Z,8.15
2022-11-07T03:31:40.974Z,8.15
2022-11-07T03:32:40.990Z,8.1
2022-11-07T03:33:40.993Z,8.1
2022-11-07T03:34:41.128Z,8.15
2022-11-07T03:35:41.001Z,8.1
2022-11-07T03:36:41.011Z,8.1
2022-11-07T03:37:40.972Z,8.15
2022-11-07T03:38:41.204Z,8.15
2022-11-07T03:39:41.029Z,8.1
2022-11-07T03:40:41.059Z,8.15
2022-11-07T03:41:40.980Z,8.15
2022-11-07T03:42:41.068Z,8.15
2022-11-07T03:43:40.968Z,8.15
2022-11-07T03:44:40.967Z,8.1
2022-11-07T03:45:41.073Z,8.15
2022-11-07T03:46:40.969Z,8.15
2022-11-07T03:47:40.980Z,8.15
2022-11-07T03:48:41.095Z,8.15
2022-11-07T03:49:41.050Z,8.15
2022-11-07T03:50:41.112Z,8.15
2022-11-07T03:51:40.967Z,8.15
2022-11-07T03:52:41.030Z,8.15
2022-11-07T03:53:41.051Z,8.15
2022-11-07T03:54:41.030Z,8.15
2022-11-07T03:55:41.037Z,8.15
2022-11-07T03:56:41.036Z,8.15
2022-11-07T03:57:41.011Z,8.15
2022-11-07T03:58:41.049Z,8.15
2022-11-07T03:59:40.961Z,8.15
2022-11-07T04:00:40.960Z,8.15
2022-11-07T04:01:41.083Z,8.21
2022-11-07T04:02:41.133Z,8.21
2022-11-07T04:03:40.975Z,8.21
2022-11-07T04:04:40.977Z,8.21
2022-11-07T04:05:41.021Z,8.15
2022-11-07T04:06:41.109Z,8.15
2022-11-07T04:07:40.972Z,8.21
2022-11-07T04:08:41.035Z,8.21
2022-11-07T04:09:41.070Z,8.15
2022-11-07T04:10:41.135Z,8.21
2022-11-07T04:11:41.042Z,8.21
2022-11-07T04:12:41.048Z,8.21
2022-11-07T04:13:41.038Z,8.21
2022-11-07T04:14:41.061Z,8.21
2022-11-07T04:15:41.070Z,8.26
2022-11-07T04:16:40.978Z,8.26
2022-11-07T04:17:40.998Z,8.37
2022-11-07T04:18:41.079Z,8.37
2022-11-07T04:19:40.954Z,8.37
2022-11-07T04:20:40.986Z,8.37
2022-11-07T04:21:41.035Z,8.37
2022-11-07T04:22:40.980Z,8.37
2022-11-07T04:23:40.974Z,8.48
2022-11-07T04:24:45.542Z,8.48
2022-11-07T04:25:40.976Z,8.42
2022-11-07T04:26:41.026Z,8.42
2022-11-07T04:27:40.961Z,8.37
2022-11-07T04:28:40.991Z,8.42
2022-11-07T04:29:41.015Z,8.42
2022-11-07T04:30:40.962Z,8.42
2022-11-07T04:31:41.052Z,8.42
2022-11-07T04:32:41.072Z,8.42
2022-11-07T04:33:41.071Z,8.48
2022-11-07T04:34:40.965Z,8.48
2022-11-07T04:35:40.978Z,8.53
2022-11-07T04:36:41.096Z,8.64
2022-11-07T04:37:41.019Z,8.64
2022-11-07T04:38:41.001Z,8.64
2022-11-07T04:39:40.968Z,8.59
2022-11-07T04:40:40.990Z,8.64
2022-11-07T04:41:40.961Z,8.75
2022-11-07T04:42:41.028Z,8.75
2022-11-07T04:43:41.038Z,8.81
2022-11-07T04:44:41.030Z,8.87
2022-11-07T04:45:41.051Z,8.87
2022-11-07T04:46:40.967Z,8.87
2022-11-07T04:47:41.092Z,8.81
2022-11-07T04:48:41.074Z,8.75
2022-11-07T04:49:41.159Z,8.75
2022-11-07T04:50:41.114Z,8.75
2022-11-07T04:51:40.974Z,8.87
2022-11-07T04:52:41.033Z,8.87
2022-11-07T04:53:40.968Z,8.87
2022-11-07T04:54:41.008Z,8.87
2022-11-07T04:55:41.000Z,8.92
2022-11-07T04:56:41.000Z,8.87
2022-11-07T04:57:41.106Z,8.87
2022-11-07T04:58:41.217Z,8.92
2022-11-07T04:59:41.183Z,8.87
2022-11-07T05:00:41.308Z,8.87
2022-11-07T05:01:41.506Z,8.92
2022-11-07T05:02:41.106Z,8.92
2022-11-07T05:03:42.191Z,8.92
2022-11-07T05:04:41.090Z,8.92
2022-11-07T05:05:40.965Z,8.92
2022-11-07T05:06:40.952Z,8.92
2022-11-07T05:07:41.412Z,8.98
2022-11-07T05:08:41.009Z,8.98
2022-11-07T05:09:40.965Z,8.98
2022-11-07T05:10:41.077Z,9.04
2022-11-07T05:11:40.962Z,9.15
2022-11-07T05:12:40.979Z,9.21
2022-11-07T05:13:41.007Z,9.27
2022-11-07T05:14:40.979Z,9.27
2022-11-07T05:15:41.007Z,9.27
2022-11-07T05:16:41.006Z,9.33
2022-11-07T05:17:40.978Z,9.33
2022-11-07T05:18:40.982Z,9.39
2022-11-07T05:19:40.966Z,9.39
2022-11-07T05:20:40.973Z,9.39
2022-11-07T05:21:40.970Z,9.39
2022-11-07T05:22:40.975Z,9.39
2022-11-07T05:23:41.016Z,9.39
2022-11-07T05:24:41.001Z,9.39
2022-11-07T05:25:40.998Z,9.45
2022-11-07T05:26:41.074Z,9.45
2022-11-07T05:27:40.978Z,9.45
2022-11-07T05:28:41.023Z,9.45
2022-11-07T05:29:41.037Z,9.45
2022-11-07T05:30:40.964Z,9.39
2022-11-07T05:31:41.024Z,9.39
2022-11-07T05:32:40.965Z,9.45
2022-11-07T05:33:40.970Z,9.51
2022-11-07T05:34:41.060Z,9.51
2022-11-07T05:35:41.052Z,9.45
2022-11-07T05:36:40.968Z,9.45
2022-11-07T05:37:40.982Z,9.45
2022-11-07T05:38:41.084Z,9.51
2022-11-07T05:39:41.087Z,9.57
2022-11-07T05:40:40.984Z,9.57
2022-11-07T05:41:41.004Z,9.57
2022-11-07T05:42:40.986Z,9.57
2022-11-07T05:43:40.965Z,9.63
2022-11-07T05:44:40.974Z,9.63
2022-11-07T05:45:40.983Z,9.63
2022-11-07T05:46:40.972Z,9.63
2022-11-07T05:47:41.023Z,9.63
2022-11-07T05:48:40.968Z,9.69
2022-11-07T05:49:40.986Z,9.63
2022-11-07T05:50:40.961Z,9.63
2022-11-07T05:51:40.956Z,9.69
2022-11-07T05:52:41.001Z,9.63
2022-11-07T05:53:40.973Z,9.63
2022-11-07T05:54:41.045Z,9.57
2022-11-07T05:55:41.015Z,9.57
2022-11-07T05:56:40.967Z,9.63
2022-11-07T05:57:41.047Z,9.69
2022-11-07T05:58:40.969Z,9.69
2022-11-07T05:59:40.976Z,9.63
2022-11-07T06:00:41.024Z,9.69
2022-11-07T06:01:41.070Z,9.69
2022-11-07T06:02:41.156Z,9.69
2022-11-07T06:03:41.011Z,9.63
2022-11-07T06:04:41.120Z,9.69
2022-11-07T06:05:40.977Z,9.76
2022-11-07T06:06:40.975Z,9.76
2022-11-07T06:07:40.960Z,9.76
2022-11-07T06:08:41.005Z,9.76
2022-11-07T06:09:40.970Z,9.82
2022-11-07T06:10:41.022Z,9.88
2022-11-07T06:11:41.009Z,9.88
2022-11-07T06:12:40.989Z,9.82
2022-11-07T06:13:40.977Z,9.82
2022-11-07T06:14:41.001Z,9.82
2022-11-07T06:15:40.974Z,9.82
2022-11-07T06:16:40.965Z,9.76
2022-11-07T06:17:40.970Z,9.82
2022-11-07T06:18:41.885Z,9.76
2022-11-07T06:19:41.046Z,9.76
2022-11-07T06:20:41.067Z,9.76
2022-11-07T06:21:40.983Z,9.76
2022-11-07T06:22:40.975Z,9.82
2022-11-07T06:23:40.968Z,9.82
2022-11-07T06:24:41.072Z,9.82
2022-11-07T06:25:40.957Z,9.88
2022-11-07T06:26:41.006Z,9.88
2022-11-07T06:27:40.987Z,9.82
2022-11-07T06:28:40.995Z,9.88
2022-11-07T06:29:40.965Z,9.94
2022-11-07T06:30:41.012Z,9.94
2022-11-07T06:31:41.015Z,9.94
2022-11-07T06:32:40.968Z,9.94
2022-11-07T06:33:41.035Z,10
2022-11-07T06:34:41.013Z,10
2022-11-07T06:35:40.978Z,10
2022-11-07T06:36:40.974Z,10.07
2022-11-07T06:37:41.066Z,10.07
2022-11-07T06:38:40.986Z,10.07
2022-11-07T06:39:40.968Z,10.07
2022-11-07T06:40:40.968Z,10.07
2022-11-07T06:41:41.075Z,10.13
2022-11-07T06:42:41.022Z,10.13
2022-11-07T06:43:40.966Z,10.13
2022-11-07T06:44:41.046Z,10.13
2022-11-07T06:45:40.959Z,10.2
2022-11-07T06:46:40.978Z,10.2
2022-11-07T06:47:40.970Z,10.2
2022-11-07T06:48:40.972Z,10.2
2022-11-07T06:49:41.048Z,10.2
2022-11-07T06:50:41.060Z,10.2
2022-11-07T06:51:44.025Z,10.2
2022-11-07T06:52:40.967Z,10.2
2022-11-07T06:53:41.056Z,10.2
2022-11-07T06:54:41.065Z,10.26
2022-11-07T06:55:41.069Z,10.26
2022-11-07T06:56:41.065Z,10.26
2022-11-07T06:57:41.042Z,10.26
2022-11-07T06:58:41.016Z,10.26
2022-11-07T06:59:41.009Z,10.26
2022-11-07T07:00:41.022Z,10.26
2022-11-07T07:01:41.141Z,10.26
2022-11-07T07:02:58.585Z,10.32
2022-11-07T07:03:41.001Z,10.32
2022-11-07T07:04:40.977Z,10.32
2022-11-07T07:05:41.011Z,10.32
2022-11-07T07:06:41.012Z,10.32
2022-11-07T07:07:40.963Z,10.32
2022-11-07T07:08:41.029Z,10.32
2022-11-07T07:09:40.968Z,10.26
2022-11-07T07:10:40.969Z,10.32
2022-11-07T07:11:40.970Z,10.32
2022-11-07T07:12:40.981Z,10.32
2022-11-07T07:13:41.028Z,10.32
2022-11-07T07:14:40.987Z,10.32
2022-11-07T07:15:51.285Z,10.32
2022-11-07T07:16:40.965Z,10.32
2022-11-07T07:17:40.966Z,10.32
2022-11-07T07:18:40.974Z,10.39
2022-11-07T07:19:40.969Z,10.39
2022-11-07T07:20:40.978Z,10.39
2022-11-07T07:21:41.011Z,10.39
2022-11-07T07:22:40.966Z,10.39
2022-11-07T07:23:40.957Z,10.39
2022-11-07T07:24:40.964Z,10.32
2022-11-07T07:25:41.029Z,10.39
2022-11-07T07:26:40.996Z,10.32
2022-11-07T07:27:40.969Z,10.39
2022-11-07T07:28:40.986Z,10.39
2022-11-07T07:29:41.001Z,10.32
2022-11-07T07:30:41.121Z,10.39
2022-11-07T07:31:40.967Z,10.39
2022-11-07T07:32:40.972Z,10.39
2022-11-07T07:33:40.968Z,10.39
2022-11-07T07:34:40.982Z,10.39
2022-11-07T07:35:40.972Z,10.46
2022-11-07T07:36:41.019Z,10.46
2022-11-07T07:37:41.017Z,10.52
2022-11-07T07:38:40.962Z,10.52
2022-11-07T07:39:40.976Z,10.52
2022-11-07T07:40:40.983Z,10.59
2022-11-07T07:41:40.969Z,10.59
2022-11-07T07:42:40.970Z,10.59
2022-11-07T07:43:40.964Z,10.59
2022-11-07T07:44:40.976Z,10.59
2022-11-07T07:45:41.013Z,10.59
2022-11-07T07:46:40.967Z,10.65
2022-11-07T07:47:41.034Z,10.65
2022-11-07T07:48:40.959Z,10.65
2022-11-07T07:49:40.972Z,10.72
2022-11-07T07:50:40.979Z,10.79
2022-11-07T07:51:41.023Z,10.72
2022-11-07T07:52:41.021Z,10.79
2022-11-07T07:53:41.007Z,10.79
2022-11-07T07:54:41.045Z,10.79
2022-11-07T07:55:41.052Z,10.79
2022-11-07T07:56:40.966Z,10.85
2022-11-07T07:57:40.977Z,10.85
2022-11-07T07:58:41.068Z,10.85
2022-11-07T07:59:41.073Z,10.85
2022-11-07T08:00:41.037Z,10.79
2022-11-07T08:01:41.395Z,10.85
2022-11-07T08:02:40.971Z,10.79
2022-11-07T08:04:00.054Z,10.79
2022-11-07T08:04:40.981Z,10.72
2022-11-07T08:05:40.995Z,10.79
2022-11-07T08:06:41.007Z,10.72
2022-11-07T08:07:41.008Z,10.79
2022-11-07T08:08:41.033Z,10.79
2022-11-07T08:09:41.051Z,10.72
2022-11-07T08:10:42.794Z,10.72
2022-11-07T08:11:40.988Z,10.79
2022-11-07T08:12:40.970Z,10.79
2022-11-07T08:13:40.981Z,10.79
2022-11-07T08:14:40.967Z,10.85
2022-11-07T08:15:41.074Z,10.79
2022-11-07T08:16:41.078Z,10.85
2022-11-07T08:17:40.971Z,10.85
2022-11-07T08:18:40.996Z,10.85
2022-11-07T08:19:40.996Z,10.85
2022-11-07T08:20:40.994Z,10.85
2022-11-07T08:21:40.977Z,10.92
2022-11-07T08:22:40.981Z,10.92
2022-11-07T08:23:41.021Z,10.92
2022-11-07T08:24:41.025Z,10.92
2022-11-07T08:25:41.136Z,10.99
2022-11-07T08:26:41.034Z,10.99
2022-11-07T08:27:40.976Z,10.99
2022-11-07T08:28:40.991Z,10.99
2022-11-07T08:29:40.961Z,10.99
2022-11-07T08:30:40.965Z,11.06
2022-11-07T08:31:40.995Z,10.99
2022-11-07T08:32:41.059Z,10.99
2022-11-07T08:33:41.079Z,11.06
2022-11-07T08:34:40.981Z,11.06
2022-11-07T08:35:42.716Z,11.06
2022-11-07T08:36:40.973Z,11.06
2022-11-07T08:37:40.990Z,11.13
2022-11-07T08:38:40.981Z,11.06
2022-11-07T08:39:41.033Z,11.13
2022-11-07T08:40:41.019Z,11.06
2022-11-07T08:41:40.982Z,11.06
2022-11-07T08:42:40.970Z,11.13
2022-11-07T08:43:40.964Z,11.13
2022-11-07T08:44:40.976Z,11.13
2022-11-07T08:45:41.119Z,11.2
2022-11-07T08:46:41.094Z,11.2
2022-11-07T08:47:41.033Z,11.2
2022-11-07T08:48:41.010Z,11.2
2022-11-07T08:49:40.974Z,11.2
2022-11-07T08:50:41.016Z,11.2
2022-11-07T08:51:40.965Z,11.2
2022-11-07T08:52:40.976Z,11.27
2022-11-07T08:53:40.995Z,11.27
2022-11-07T08:54:40.976Z,11.2
2022-11-07T08:55:41.344Z,11.27
2022-11-07T08:56:40.975Z,11.27
2022-11-07T08:57:40.966Z,11.34
2022-11-07T08:58:40.965Z,11.27
2022-11-07T08:59:40.965Z,11.27
2022-11-07T09:00:41.136Z,11.27
2022-11-07T09:02:15.148Z,11.34
2022-11-07T09:03:23.871Z,11.34
2022-11-07T09:03:47.189Z,11.34
2022-11-07T09:04:41.130Z,11.41
2022-11-07T09:05:40.959Z,11.41
2022-11-07T09:06:40.972Z,11.41
2022-11-07T09:07:40.992Z,11.34
2022-11-07T09:08:41.001Z,11.34
2022-11-07T09:09:40.986Z,11.34
2022-11-07T09:10:40.965Z,11.34
2022-11-07T09:11:41.021Z,11.34
2022-11-07T09:12:40.968Z,11.34
2022-11-07T09:13:41.002Z,11.34
2022-11-07T09:14:40.979Z,11.34
2022-11-07T09:15:43.761Z,11.34
2022-11-07T09:16:40.982Z,11.41
2022-11-07T09:17:40.969Z,11.48
2022-11-07T09:18:40.998Z,11.48
2022-11-07T09:19:41.007Z,11.48
2022-11-07T09:20:40.981Z,11.55
2022-11-07T09:21:40.968Z,11.55
2022-11-07T09:22:40.963Z,11.55
2022-11-07T09:23:40.999Z,11.48
2022-11-07T09:24:40.986Z,11.41
2022-11-07T09:25:40.989Z,11.41
2022-11-07T09:26:41.029Z,11.41
2022-11-07T09:27:41.034Z,11.41
2022-11-07T09:28:41.023Z,11.34
2022-11-07T09:29:41.223Z,11.34
2022-11-07T09:30:40.975Z,11.41
2022-11-07T09:31:40.982Z,11.41
2022-11-07T09:32:45.659Z,11.48
2022-11-07T09:33:41.068Z,11.55
2022-11-07T09:34:41.065Z,11.62
2022-11-07T09:35:41.021Z,11.62
2022-11-07T09:36:40.973Z,11.69
2022-11-07T09:37:40.998Z,11.77
2022-11-07T09:38:40.963Z,11.69
2022-11-07T09:39:40.974Z,11.62
2022-11-07T09:40:40.973Z,11.62
2022-11-07T09:41:40.966Z,11.62
2022-11-07T09:42:41.027Z,11.62
2022-11-07T09:43:41.003Z,11.62
2022-11-07T09:44:40.976Z,11.62
2022-11-07T09:45:40.965Z,11.62
2022-11-07T09:46:40.970Z,11.62
2022-11-07T09:47:40.976Z,11.69
2022-11-07T09:48:40.999Z,11.69
2022-11-07T09:49:40.963Z,11.69
2022-11-07T09:50:41.068Z,11.77
2022-11-07T09:51:41.070Z,11.69
2022-11-07T09:52:40.964Z,11.77
2022-11-07T09:53:40.971Z,11.77
2022-11-07T09:54:40.985Z,11.69
2022-11-07T09:55:40.969Z,11.69
2022-11-07T09:56:40.966Z,11.62
2022-11-07T09:57:40.964Z,11.55
2022-11-07T09:58:41.013Z,11.55
2022-11-07T09:59:41.022Z,11.55
2022-11-07T10:00:41.053Z,11.62
2022-11-07T10:01:41.150Z,11.62
2022-11-07T10:02:41.319Z,11.69
2022-11-07T10:03:49.148Z,11.69
2022-11-07T10:04:40.994Z,11.69
2022-11-07T10:05:41.093Z,11.69
2022-11-07T10:06:41.018Z,11.69
2022-11-07T10:07:41.080Z,11.69
2022-11-07T10:08:41.091Z,11.69
2022-11-07T10:09:41.006Z,11.69
2022-11-07T10:10:40.992Z,11.69
2022-11-07T10:11:40.973Z,11.62
2022-11-07T10:12:44.588Z,11.62
2022-11-07T10:13:41.024Z,11.62
2022-11-07T10:14:41.112Z,11.69
2022-11-07T10:15:41.033Z,11.69
2022-11-07T10:16:41.027Z,11.69
2022-11-07T10:17:41.040Z,11.69
2022-11-07T10:18:41.044Z,11.69
2022-11-07T10:19:40.992Z,11.69
2022-11-07T10:20:40.972Z,11.62
2022-11-07T10:21:41.022Z,11.62
2022-11-07T10:22:41.072Z,11.62
2022-11-07T10:23:41.088Z,11.62
2022-11-07T10:24:40.999Z,11.69
2022-11-07T10:25:40.979Z,11.69
2022-11-07T10:26:40.975Z,11.69
2022-11-07T10:27:40.984Z,11.62
2022-11-07T10:28:41.009Z,11.62
2022-11-07T10:29:44.599Z,11.62
2022-11-07T10:30:41.124Z,11.69
2022-11-07T10:31:40.978Z,11.69
2022-11-07T10:32:41.042Z,11.69
2022-11-07T10:33:40.959Z,11.62
2022-11-07T10:34:40.990Z,11.69
2022-11-07T10:35:40.969Z,11.69
2022-11-07T10:36:41.008Z,11.69
2022-11-07T10:37:41.033Z,11.69
2022-11-07T10:38:41.014Z,11.77
2022-11-07T10:39:41.101Z,11.69
2022-11-07T10:40:41.069Z,11.69
2022-11-07T10:41:41.087Z,11.77
2022-11-07T10:42:40.983Z,11.77
2022-11-07T10:43:40.972Z,11.84
2022-11-07T10:44:40.982Z,11.77
2022-11-07T10:45:41.124Z,11.84
2022-11-07T10:46:41.024Z,11.84
2022-11-07T10:47:40.974Z,11.84
2022-11-07T10:48:40.984Z,11.84
2022-11-07T10:49:40.984Z,11.77
2022-11-07T10:50:40.976Z,11.77
2022-11-07T10:51:40.995Z,11.77
2022-11-07T10:52:41.065Z,11.77
2022-11-07T10:53:41.026Z,11.77
2022-11-07T10:54:41.096Z,11.84
2022-11-07T10:55:41.069Z,11.84
2022-11-07T10:56:41.083Z,11.77
2022-11-07T10:57:41.000Z,11.84
2022-11-07T10:58:40.972Z,11.91
2022-11-07T10:59:41.111Z,11.99
2022-11-07T11:00:41.019Z,12.06
2022-11-07T11:01:41.187Z,12.06
2022-11-07T11:02:41.001Z,12.13
2022-11-07T11:03:45.445Z,12.21
2022-11-07T11:04:40.975Z,12.28
2022-11-07T11:05:41.052Z,12.36
2022-11-07T11:06:41.071Z,12.36
2022-11-07T11:07:41.081Z,12.36
2022-11-07T11:08:41.054Z,12.36
2022-11-07T11:09:41.049Z,12.36
2022-11-07T11:10:41.001Z,12.36
2022-11-07T11:11:41.087Z,12.51
2022-11-07T11:12:41.105Z,12.51
2022-11-07T11:13:41.000Z,12.59
2022-11-07T11:14:40.993Z,12.59
2022-11-07T11:15:41.003Z,12.59
2022-11-07T11:16:40.998Z,12.67
2022-11-07T11:17:41.018Z,12.74
2022-11-07T11:18:41.020Z,12.74
2022-11-07T11:19:41.035Z,12.74
2022-11-07T11:20:40.980Z,12.74
2022-11-07T11:21:41.040Z,12.82
2022-11-07T11:22:41.025Z,12.9
2022-11-07T11:23:41.053Z,12.9
2022-11-07T11:24:41.064Z,13.06
2022-11-07T11:25:41.065Z,13.14
2022-11-07T11:26:41.074Z,13.22
2022-11-07T11:27:41.034Z,13.22
2022-11-07T11:28:41.088Z,13.14
2022-11-07T11:29:40.986Z,13.38
2022-11-07T11:30:40.996Z,13.46
2022-11-07T11:31:40.982Z,13.38
2022-11-07T11:32:41.117Z,13.3
2022-11-07T11:33:41.122Z,13.22
2022-11-07T11:34:41.019Z,13.3
2022-11-07T11:35:42.347Z,13.38
2022-11-07T11:36:41.043Z,13.3
2022-11-07T11:37:41.036Z,13.3
2022-11-07T11:38:41.076Z,13.46
2022-11-07T11:39:41.050Z,13.87
2022-11-07T11:40:41.065Z,13.99
2022-11-07T11:41:41.068Z,13.76
2022-11-07T11:42:40.975Z,13.75
2022-11-07T11:43:40.988Z,13.78
2022-11-07T11:44:40.987Z,13.59
2022-11-07T11:45:41.000Z,13.35
2022-11-07T11:46:41.091Z,13.38
2022-11-07T11:47:40.967Z,13.43
2022-11-07T11:48:41.028Z,13.49
2022-11-07T11:49:41.122Z,13.45
2022-11-07T11:50:41.009Z,13.36
2022-11-07T11:51:41.028Z,13.12
2022-11-07T11:52:41.034Z,13.18
2022-11-07T11:53:40.971Z,13.24
2022-11-07T11:54:40.977Z,13.42
2022-11-07T11:55:41.062Z,13.63
2022-11-07T11:56:41.012Z,13.46
2022-11-07T11:57:41.068Z,13.38
2022-11-07T11:58:40.988Z,13.14
2022-11-07T11:59:41.026Z,13.06
2022-11-07T12:00:41.034Z,12.9
2022-11-07T12:01:40.974Z,12.74
2022-11-07T12:02:41.201Z,12.67
2022-11-07T12:03:41.007Z,12.67
2022-11-07T12:04:41.023Z,12.67
2022-11-07T12:05:40.975Z,12.74
2022-11-07T12:06:40.985Z,12.74
2022-11-07T12:07:40.987Z,12.74
2022-11-07T12:08:40.982Z,12.82
2022-11-07T12:09:41.066Z,12.82
2022-11-07T12:10:40.997Z,12.9
2022-11-07T12:11:40.985Z,12.9
2022-11-07T12:12:41.063Z,12.82
2022-11-07T12:13:41.129Z,12.67
2022-11-07T12:14:41.078Z,12.67
2022-11-07T12:15:40.999Z,12.67
2022-11-07T12:16:41.010Z,12.67
2022-11-07T12:17:40.974Z,12.67
2022-11-07T12:18:41.004Z,12.67
2022-11-07T12:19:41.083Z,12.67
2022-11-07T12:20:41.020Z,12.74
2022-11-07T12:21:45.893Z,12.74
2022-11-07T12:22:41.124Z,12.74
2022-11-07T12:23:40.981Z,12.67
2022-11-07T12:24:40.988Z,12.74
2022-11-07T12:25:40.988Z,12.67
2022-11-07T12:26:40.979Z,12.67
2022-11-07T12:27:41.057Z,12.67
2022-11-07T12:28:41.018Z,12.67
2022-11-07T12:29:41.030Z,12.74
2022-11-07T12:30:40.964Z,12.82
2022-11-07T12:31:40.977Z,12.82
2022-11-07T12:32:40.979Z,12.82
2022-11-07T12:33:40.987Z,12.74
2022-11-07T12:34:40.991Z,12.74
2022-11-07T12:35:41.035Z,12.82
2022-11-07T12:36:41.024Z,12.82
2022-11-07T12:37:40.982Z,12.9
2022-11-07T12:38:40.974Z,12.9
2022-11-07T12:39:40.983Z,12.82
2022-11-07T12:40:41.060Z,12.9
2022-11-07T12:41:40.989Z,13.14
2022-11-07T12:42:41.050Z,13.38
2022-11-07T12:43:41.064Z,13.3
2022-11-07T12:44:41.052Z,13.3
2022-11-07T12:45:41.062Z,13.3
2022-11-07T12:46:40.991Z,13.22
2022-11-07T12:47:41.090Z,13.38
2022-11-07T12:48:40.976Z,13.63
2022-11-07T12:49:41.104Z,13.47
2022-11-07T12:50:40.989Z,13.33
2022-11-07T12:51:41.040Z,13.32
2022-11-07T12:52:41.003Z,13.28
2022-11-07T12:53:40.994Z,13.27
2022-11-07T12:54:41.032Z,13.27
2022-11-07T12:55:40.977Z,13.28
2022-11-07T12:56:41.062Z,13.19
2022-11-07T12:57:41.002Z,13.19
2022-11-07T12:58:41.019Z,13.18
2022-11-07T12:59:41.056Z,13.25
2022-11-07T13:00:41.061Z,13.15
2022-11-07T13:01:41.372Z,13.16
2022-11-07T13:02:41.121Z,13.24
2022-11-07T13:03:41.092Z,13.39
2022-11-07T13:04:41.083Z,13.46
2022-11-07T13:05:41.102Z,13.22
2022-11-07T13:06:41.054Z,13.14
2022-11-07T13:07:41.116Z,13.06